createdAt,value
2022-10-22T00:04:52.674Z,97972.19
2022-10-22T00:09:55.658Z,97927.75
2022-10-22T00:14:58.804Z,97977.94
2022-10-22T00:20:01.565Z,97906.78
2022-10-22T00:25:04.741Z,97898.56
2022-10-22T00:30:08.137Z,97947.56
2022-10-22T00:35:11.054Z,97947.75
2022-10-22T00:40:13.832Z,97961.88
2022-10-22T00:45:21.140Z,97969.88
2022-10-22T00:50:31.108Z,97921.34
2022-10-22T00:55:34.731Z,97818.72
2022-10-22T01:00:37.583Z,97868.69
2022-10-22T01:05:47.751Z,97935.50
2022-10-22T01:11:05.766Z,97840.25
2022-10-22T01:16:55.257Z,97931.66
2022-10-22T01:22:26.652Z,97908.19
2022-10-22T01:28:00.102Z,97896.94
2022-10-22T01:33:07.842Z,97873.75
2022-10-22T01:38:16.147Z,97850.56
2022-10-22T01:43:19.347Z,97793.78
2022-10-22T01:48:46.288Z,97839.22
2022-10-22T01:54:20.088Z,97877.19
2022-10-22T02:00:07.172Z,97870.59
2022-10-22T02:05:18.053Z,97869.06
2022-10-22T02:10:23.043Z,97762.31
2022-10-22T02:15:28.507Z,97825.75
2022-10-22T02:20:34.778Z,97757.63
2022-10-22T02:25:41.587Z,97771.72
2022-10-22T02:30:49.739Z,97807.25
2022-10-22T02:35:54.344Z,97833.78
2022-10-22T02:40:57.423Z,97796.25
2022-10-22T02:46:00.879Z,97805.47
2022-10-22T02:51:04.191Z,97803.56
2022-10-22T02:56:07.048Z,97779.13
2022-10-22T03:01:12.427Z,97789.94
2022-10-22T03:06:18.943Z,97806.66
2022-10-22T03:11:21.886Z,97730.06
2022-10-22T03:16:24.616Z,97762.94
2022-10-22T03:21:43.126Z,97786.34
2022-10-22T03:26:48.019Z,97774.69
2022-10-22T03:31:50.750Z,97578.09
2022-10-22T03:36:54.619Z,97697.69
2022-10-22T03:41:58.314Z,97633.78
2022-10-22T03:47:02.711Z,97778.84
2022-10-22T03:52:11.347Z,97758.84
2022-10-22T03:57:14.261Z,97803.50
2022-10-22T04:02:18.221Z,97705.97
2022-10-22T04:07:21.348Z,97773.31
2022-10-22T04:12:29.035Z,97783.06
2022-10-22T04:17:36.974Z,97772.22
2022-10-22T04:22:39.996Z,97737.75
2022-10-22T04:27:42.980Z,97709.69
2022-10-22T04:32:45.963Z,97577.09
2022-10-22T04:37:48.705Z,97627.06
2022-10-22T04:42:51.720Z,97570.66
2022-10-22T04:47:54.436Z,97783.97
2022-10-22T04:52:57.244Z,97788.03
2022-10-22T04:58:00.343Z,97661.41
2022-10-22T05:03:03.047Z,97675.63
2022-10-22T05:08:06.100Z,97614.44
2022-10-22T05:13:09.645Z,97541.25
2022-10-22T05:18:12.728Z,97742.69
2022-10-22T05:23:15.432Z,97733.38
2022-10-22T05:28:18.418Z,97552.22
2022-10-22T05:33:24.126Z,97586.56
2022-10-22T05:38:27.528Z,97639.19
2022-10-22T05:43:31.502Z,97577.31
2022-10-22T05:48:34.861Z,97765.75
2022-10-22T05:53:40.105Z,97772.56
2022-10-22T05:58:47.832Z,97746.13
2022-10-22T06:03:53.933Z,97756.31
2022-10-22T06:08:57.733Z,97755.66
2022-10-22T06:14:00.496Z,97767.00
2022-10-22T06:19:03.413Z,97771.50
2022-10-22T06:24:06.805Z,97753.09
2022-10-22T06:29:09.620Z,97752.13
2022-10-22T06:34:14.540Z,97800.50
2022-10-22T06:39:19.663Z,97744.06
2022-10-22T06:44:29.101Z,97791.31
2022-10-22T06:49:32.041Z,97815.44
2022-10-22T06:54:35.135Z,97615.88
2022-10-22T06:59:47.708Z,97743.59
2022-10-22T07:04:50.594Z,97761.13
2022-10-22T07:09:54.523Z,97701.00
2022-10-22T07:14:57.451Z,97786.53
2022-10-22T07:20:00.432Z,97781.81
2022-10-22T07:25:07.380Z,97719.00
2022-10-22T07:30:11.007Z,97616.19
2022-10-22T07:35:13.697Z,97772.34
2022-10-22T07:40:16.810Z,97760.81
2022-10-22T07:45:20.068Z,97784.63
2022-10-22T07:50:23.066Z,97784.00
2022-10-22T07:55:26.526Z,97749.19
2022-10-22T08:00:32.688Z,97772.88
2022-10-22T08:05:36.313Z,97778.03
2022-10-22T08:10:39.414Z,97764.59
2022-10-22T08:20:49.152Z,97755.84
2022-10-22T08:26:05.063Z,97831.63
2022-10-22T08:31:14.312Z,97775.31
2022-10-22T08:36:19.861Z,97611.00
2022-10-22T08:41:24.935Z,97613.34
2022-10-22T08:47:01.691Z,97634.69
2022-10-22T08:58:18.616Z,97816.75
2022-10-22T09:03:49.775Z,97827.28
2022-10-22T09:08:53.905Z,97819.97
2022-10-22T09:13:58.366Z,97810.69
2022-10-22T09:19:07.525Z,97814.38
2022-10-22T09:24:21.993Z,97819.22
2022-10-22T09:29:35.279Z,97841.84
2022-10-22T09:34:38.474Z,97781.28
2022-10-22T09:39:46.098Z,97760.47
2022-10-22T09:44:59.936Z,97847.94
2022-10-22T09:50:39.843Z,97842.25
2022-10-22T09:55:44.156Z,97849.34
2022-10-22T10:00:48.944Z,97837.84
2022-10-22T10:06:01.587Z,97843.00
2022-10-22T10:11:14.284Z,97838.94
2022-10-22T10:16:43.826Z,97812.28
2022-10-22T10:21:49.354Z,97839.34
2022-10-22T10:27:24.742Z,97827.47
2022-10-22T10:32:27.832Z,97821.13
2022-10-22T10:37:37.929Z,97667.06
2022-10-22T10:43:01.096Z,97808.91
2022-10-22T10:48:14.134Z,97621.75
2022-10-22T10:53:31.228Z,97820.72
2022-10-22T10:58:50.002Z,97813.16
2022-10-22T11:04:21.109Z,97815.34
2022-10-22T11:09:31.569Z,97790.94
2022-10-22T11:14:57.942Z,97790.19
2022-10-22T11:20:20.899Z,97761.94
2022-10-22T11:25:30.177Z,97782.72
2022-10-22T11:30:39.136Z,97776.97
2022-10-22T11:35:44.872Z,97786.53
2022-10-22T11:41:01.867Z,97771.47
2022-10-22T11:46:15.397Z,97761.94
2022-10-22T11:51:31.121Z,97756.69
2022-10-22T11:56:40.265Z,97718.34
2022-10-22T12:01:44.306Z,97700.78
2022-10-22T12:06:53.245Z,97736.69
2022-10-22T12:11:56.570Z,97738.00
2022-10-22T12:17:06.747Z,97732.03
2022-10-22T12:22:21.890Z,97743.13
2022-10-22T12:27:35.112Z,97751.22
2022-10-22T12:32:43.746Z,97746.31
2022-10-22T12:38:02.191Z,97734.25
2022-10-22T12:43:18.556Z,97715.16
2022-10-22T12:48:25.964Z,97698.16
2022-10-22T12:53:32.956Z,97690.09
2022-10-22T12:59:01.295Z,97711.22
2022-10-22T13:04:13.369Z,97733.03
2022-10-22T13:09:23.902Z,97751.41
2022-10-22T13:14:33.131Z,97774.13
2022-10-22T13:19:54.767Z,97767.97
2022-10-22T13:25:00.653Z,97779.59
2022-10-22T13:30:10.377Z,97803.63
2022-10-22T13:35:18.626Z,97771.28
2022-10-22T13:40:21.682Z,97775.06
2022-10-22T13:45:24.511Z,97779.81
2022-10-22T13:50:27.228Z,97785.81
2022-10-22T13:55:31.491Z,97822.91
2022-10-22T14:00:35.396Z,97832.81
2022-10-22T14:05:38.109Z,97800.22
2022-10-22T14:10:41.291Z,97833.66
2022-10-22T14:15:47.440Z,97834.25
2022-10-22T14:20:52.079Z,97872.78
2022-10-22T14:25:55.244Z,97878.13
2022-10-22T14:30:58.048Z,97878.66
2022-10-22T14:36:10.129Z,97804.59
2022-10-22T14:41:22.440Z,97888.19
2022-10-22T14:46:25.333Z,97914.66
2022-10-22T14:51:33.678Z,97920.47
2022-10-22T14:56:38.295Z,97928.75
2022-10-22T15:01:48.055Z,97935.06
2022-10-22T15:06:50.993Z,97897.34
2022-10-22T15:11:53.754Z,97943.34
2022-10-22T15:16:56.625Z,97952.03
2022-10-22T15:21:59.421Z,97951.47
2022-10-22T15:27:04.137Z,97967.69
2022-10-22T15:32:07.547Z,97916.28
2022-10-22T15:37:21.520Z,97955.25
2022-10-22T15:42:25.576Z,97964.56
2022-10-22T15:47:30.524Z,97937.13
2022-10-22T15:52:33.380Z,97976.03
2022-10-22T15:57:36.420Z,97966.59
2022-10-22T16:02:39.277Z,97956.53
2022-10-22T16:07:43.948Z,97981.41
2022-10-22T16:12:46.896Z,97994.59
2022-10-22T16:17:49.892Z,97984.91
2022-10-22T16:22:54.067Z,97968.00
2022-10-22T16:27:57.213Z,97902.81
2022-10-22T16:33:03.340Z,97923.19
2022-10-22T16:38:07.791Z,97975.31
2022-10-22T16:43:20.864Z,97973.91
2022-10-22T16:48:23.710Z,97988.84
2022-10-22T16:53:36.995Z,97965.56
2022-10-22T16:58:44.504Z,98017.56
2022-10-22T17:03:48.309Z,98003.63
2022-10-22T17:08:51.460Z,98009.16
2022-10-22T17:13:55.898Z,98027.38
2022-10-22T17:18:59.497Z,98042.38
2022-10-22T17:24:02.836Z,98051.84
2022-10-22T17:29:15.828Z,98086.09
2022-10-22T17:34:19.248Z,98104.19
2022-10-22T17:39:21.926Z,97980.53
2022-10-22T17:44:24.944Z,98106.34
2022-10-22T17:49:27.827Z,98106.38
2022-10-22T17:54:31.076Z,98066.03
2022-10-22T17:59:34.862Z,98096.13
2022-10-22T18:04:38.077Z,98079.66
2022-10-22T18:09:43.658Z,98089.66
2022-10-22T18:14:47.885Z,98069.41
2022-10-22T18:19:50.720Z,97994.81
2022-10-22T18:24:53.916Z,98036.03
2022-10-22T18:29:59.076Z,98095.88
2022-10-22T18:35:01.833Z,98121.56
2022-10-22T18:40:14.696Z,98085.97
2022-10-22T18:45:17.683Z,98120.59
2022-10-22T18:50:21.930Z,98101.03
2022-10-22T18:55:25.512Z,98114.81
2022-10-22T19:07:29.047Z,98112.41
2022-10-22T19:12:32.457Z,98065.25
2022-10-22T19:17:36.442Z,98127.78
2022-10-22T19:22:42.370Z,98156.91
2022-10-22T19:27:45.592Z,98153.03
2022-10-22T19:32:49.917Z,98159.84
2022-10-22T19:37:53.155Z,98192.16
2022-10-22T19:42:55.925Z,98176.25
2022-10-22T19:47:58.687Z,98140.47
2022-10-22T19:53:02.368Z,98116.28
2022-10-22T20:05:05.877Z,98191.97
2022-10-22T20:10:10.005Z,98150.13
2022-10-22T20:15:14.780Z,98147.63
2022-10-22T20:20:19.445Z,98059.94
2022-10-22T20:25:24.818Z,98193.03
2022-10-22T20:30:28.077Z,98196.19
2022-10-22T20:35:31.013Z,98148.38
2022-10-22T20:40:34.324Z,98235.06
2022-10-22T20:45:37.504Z,98216.06
2022-10-22T20:50:40.294Z,98237.41
2022-10-22T20:55:43.213Z,98187.97
2022-10-22T21:00:47.223Z,98246.78
2022-10-22T21:05:53.969Z,98225.47
2022-10-22T21:10:56.808Z,98229.44
2022-10-22T21:22:59.065Z,98241.84
2022-10-22T21:28:01.807Z,98223.50
2022-10-22T21:33:04.623Z,98231.03
2022-10-22T21:38:08.763Z,98241.72
2022-10-22T21:43:31.589Z,98238.16
2022-10-22T21:48:35.191Z,98257.47
2022-10-22T21:53:38.456Z,98063.31
2022-10-22T21:58:41.241Z,98058.06
2022-10-22T22:03:48.710Z,98136.28
2022-10-22T22:08:56.425Z,98264.09
2022-10-22T22:14:00.034Z,98203.59
2022-10-22T22:19:06.642Z,98228.66
2022-10-22T22:24:11.736Z,98186.28
2022-10-22T22:29:14.770Z,98237.03
2022-10-22T22:41:17.169Z,98193.41
2022-10-22T22:46:19.935Z,98166.22
2022-10-22T22:51:23.434Z,98216.75
2022-10-22T22:56:28.857Z,98086.34
2022-10-22T23:01:33.342Z,98254.03
2022-10-22T23:06:38.177Z,98263.66
2022-10-22T23:11:41.433Z,98264.47
2022-10-22T23:16:50.969Z,98258.78
2022-10-22T23:22:19.040Z,98245.91
2022-10-22T23:27:22.880Z,98116.31
2022-10-22T23:32:25.573Z,98253.88
2022-10-22T23:37:28.366Z,98248.19
2022-10-22T23:42:31.877Z,98252.25
2022-10-22T23:47:35.641Z,98198.03
2022-10-22T23:59:32.287Z,98249.41
